createdAt,value
2018-12-16T00:00:20.158Z,101135.56
2018-12-16T00:02:52.819Z,101123.41
2018-12-16T00:05:25.401Z,101124.67
2018-12-16T00:07:58.131Z,101121.37
2018-12-16T00:10:30.811Z,101112.73
2018-12-16T00:13:03.433Z,101094.83
2018-12-16T00:15:36.076Z,101091.36
2018-12-16T00:18:08.779Z,101086.52
2018-12-16T00:20:41.368Z,101089.19
2018-12-16T00:23:13.995Z,101085.08
2018-12-16T00:25:46.572Z,101087.59
2018-12-16T00:28:19.285Z,101080.84
2018-12-16T00:30:51.918Z,101081.48
2018-12-16T00:33:24.522Z,101085.61
2018-12-16T00:35:57.281Z,101078.39
2018-12-16T00:38:29.905Z,101078.66
2018-12-16T00:41:02.515Z,101080.72
2018-12-16T00:43:35.150Z,101087.22
2018-12-16T00:46:07.739Z,101092.84
2018-12-16T00:48:40.444Z,101092.84
2018-12-16T00:51:13.039Z,101084.16
2018-12-16T00:53:45.697Z,101079.11
2018-12-16T00:56:18.277Z,101076.09
2018-12-16T00:58:50.904Z,101076.37
2018-12-16T01:01:23.504Z,101075.33
2018-12-16T01:03:56.165Z,101073.22
2018-12-16T01:06:28.762Z,101069.59
2018-12-16T01:09:01.392Z,101071.59
2018-12-16T01:11:33.979Z,101074.05
2018-12-16T01:14:06.606Z,101077.29
2018-12-16T01:16:39.199Z,101076.38
2018-12-16T01:19:11.948Z,101080.38
2018-12-16T01:21:44.546Z,101075.59
2018-12-16T01:24:18.364Z,101076.91
2018-12-16T01:26:51.240Z,101073.70
2018-12-16T01:29:23.950Z,101076.16
2018-12-16T01:31:56.530Z,101063.64
2018-12-16T01:34:29.249Z,101067.41
2018-12-16T01:37:01.845Z,101066.05
2018-12-16T01:39:34.478Z,101056.05
2018-12-16T01:42:07.077Z,101053.20
2018-12-16T01:44:39.709Z,101053.95
2018-12-16T01:47:12.316Z,101047.86
2018-12-16T01:49:44.923Z,101037.15
2018-12-16T01:52:17.588Z,101031.27
2018-12-16T01:54:50.291Z,101023.42
2018-12-16T01:57:22.863Z,101020.30
2018-12-16T01:59:55.493Z,101017.16
2018-12-16T02:02:28.105Z,101010.55
2018-12-16T02:05:00.749Z,101001.16
2018-12-16T02:07:33.332Z,101008.03
2018-12-16T02:10:06.159Z,101001.86
2018-12-16T02:12:38.824Z,100990.35
2018-12-16T02:15:11.592Z,100983.48
2018-12-16T02:17:44.181Z,100982.52
2018-12-16T02:20:16.751Z,100975.55
2018-12-16T02:22:49.281Z,100974.14
2018-12-16T02:25:21.960Z,100964.67
2018-12-16T02:27:54.495Z,100957.32
2018-12-16T02:30:29.166Z,100963.95
2018-12-16T02:33:01.735Z,100962.63
2018-12-16T02:35:34.326Z,100959.15
2018-12-16T02:38:06.868Z,100957.33
2018-12-16T02:40:39.434Z,100958.22
2018-12-16T02:43:11.980Z,100946.88
2018-12-16T02:45:44.578Z,100949.56
2018-12-16T02:48:17.128Z,100933.94
2018-12-16T02:50:49.815Z,100934.80
2018-12-16T02:53:22.422Z,100925.27
2018-12-16T02:55:54.979Z,100915.89
2018-12-16T02:58:27.538Z,100921.14
2018-12-16T03:01:00.176Z,100904.84
2018-12-16T03:03:32.716Z,100907.57
2018-12-16T03:06:05.274Z,100903.48
2018-12-16T03:08:37.826Z,100892.64
2018-12-16T03:11:10.378Z,100887.62
2018-12-16T03:13:42.905Z,100882.69
2018-12-16T03:16:15.495Z,100882.56
2018-12-16T03:18:48.043Z,100878.49
2018-12-16T03:21:20.609Z,100874.17
2018-12-16T03:23:53.167Z,100870.45
2018-12-16T03:26:25.743Z,100871.34
2018-12-16T03:28:58.300Z,100858.42
2018-12-16T03:31:30.927Z,100858.15
2018-12-16T03:34:03.500Z,100846.75
2018-12-16T03:36:36.093Z,100836.67
2018-12-16T03:39:08.626Z,100831.67
2018-12-16T03:41:41.195Z,100818.84
2018-12-16T03:44:13.732Z,100821.52
2018-12-16T03:46:46.325Z,100817.10
2018-12-16T03:49:18.862Z,100821.81
2018-12-16T03:51:51.520Z,100821.45
2018-12-16T03:54:24.072Z,100816.40
2018-12-16T03:56:56.634Z,100820.13
2018-12-16T03:59:29.171Z,100803.14
2018-12-16T04:02:01.726Z,100794.02
2018-12-16T04:04:34.256Z,100782.02
2018-12-16T04:07:06.848Z,100769.16
2018-12-16T04:09:39.357Z,100761.72
2018-12-16T04:12:12.098Z,100754.95
2018-12-16T04:14:44.699Z,100759.25
2018-12-16T04:17:17.498Z,100761.25
2018-12-16T04:19:50.037Z,100753.41
2018-12-16T04:22:22.623Z,100743.67
2018-12-16T04:24:55.145Z,100748.42
2018-12-16T04:27:27.782Z,100749.14
2018-12-16T04:30:00.319Z,100761.33
2018-12-16T04:32:32.907Z,100760.13
2018-12-16T04:35:05.589Z,100753.56
2018-12-16T04:37:38.157Z,100758.81
2018-12-16T04:40:10.703Z,100757.54
2018-12-16T04:42:43.395Z,100753.95
2018-12-16T04:45:16.298Z,100751.97
2018-12-16T04:47:48.944Z,100760.06
2018-12-16T04:50:21.505Z,100749.73
2018-12-16T04:52:54.059Z,100746.42
2018-12-16T04:55:26.595Z,100744.42
2018-12-16T04:57:59.218Z,100736.81
2018-12-16T05:00:31.752Z,100729.63
2018-12-16T05:03:04.319Z,100730.05
2018-12-16T05:05:36.928Z,100726.31
2018-12-16T05:08:09.741Z,100723.15
2018-12-16T05:10:42.289Z,100716.61
2018-12-16T05:13:14.975Z,100708.68
2018-12-16T05:15:47.511Z,100704.78
2018-12-16T05:18:20.162Z,100697.66
2018-12-16T05:20:52.699Z,100697.23
2018-12-16T05:23:25.281Z,100696.95
2018-12-16T05:25:57.818Z,100692.24
2018-12-16T05:28:30.486Z,100695.13
2018-12-16T05:31:03.096Z,100687.05
2018-12-16T05:33:35.665Z,100685.77
2018-12-16T05:36:08.340Z,100677.84
2018-12-16T05:38:40.985Z,100655.42
2018-12-16T05:41:13.546Z,100647.55
2018-12-16T05:43:46.147Z,100644.83
2018-12-16T05:46:18.680Z,100634.06
2018-12-16T05:48:51.660Z,100631.96
2018-12-16T05:51:24.210Z,100624.14
2018-12-16T05:53:56.845Z,100636.59
2018-12-16T05:56:29.388Z,100629.59
2018-12-16T05:59:02.033Z,100635.98
2018-12-16T06:01:34.555Z,100638.84
2018-12-16T06:04:07.135Z,100632.44
2018-12-16T06:06:39.666Z,100632.48
2018-12-16T06:09:12.229Z,100636.84
2018-12-16T06:11:44.917Z,100637.58
2018-12-16T06:14:17.597Z,100634.31
2018-12-16T06:16:50.138Z,100640.28
2018-12-16T06:19:22.720Z,100635.62
2018-12-16T06:21:55.271Z,100634.63
2018-12-16T06:24:27.837Z,100635.20
2018-12-16T06:27:00.373Z,100639.96
2018-12-16T06:29:32.965Z,100643.80
2018-12-16T06:32:05.517Z,100641.03
2018-12-16T06:34:38.081Z,100642.11
2018-12-16T06:37:10.623Z,100641.50
2018-12-16T06:39:43.203Z,100639.69
2018-12-16T06:42:15.738Z,100649.73
2018-12-16T06:44:48.309Z,100641.84
2018-12-16T06:47:20.848Z,100631.83
2018-12-16T06:49:53.440Z,100625.48
2018-12-16T06:52:26.003Z,100627.30
2018-12-16T06:54:58.681Z,100622.12
2018-12-16T06:57:31.233Z,100618.77
2018-12-16T07:00:05.361Z,100618.72
2018-12-16T07:02:37.899Z,100616.99
2018-12-16T07:05:10.475Z,100612.00
2018-12-16T07:07:43.012Z,100609.71
2018-12-16T07:10:15.970Z,100608.12
2018-12-16T07:12:48.531Z,100610.81
2018-12-16T07:15:21.111Z,100602.83
2018-12-16T07:17:53.659Z,100605.73
2018-12-16T07:20:26.231Z,100605.89
2018-12-16T07:22:58.830Z,100598.58
2018-12-16T07:25:31.401Z,100595.84
2018-12-16T07:28:03.957Z,100598.88
2018-12-16T07:30:36.557Z,100593.73
2018-12-16T07:33:09.089Z,100597.32
2018-12-16T07:35:41.730Z,100603.37
2018-12-16T07:38:14.371Z,100604.88
2018-12-16T07:40:47.032Z,100606.26
2018-12-16T07:43:19.573Z,100613.86
2018-12-16T07:45:52.258Z,100600.75
2018-12-16T07:48:25.124Z,100600.09
2018-12-16T07:50:57.738Z,100590.27
2018-12-16T07:53:30.416Z,100592.63
2018-12-16T07:56:03.959Z,100594.38
2018-12-16T07:58:36.500Z,100592.70
2018-12-16T08:01:09.076Z,100594.62
2018-12-16T08:03:41.639Z,100596.56
2018-12-16T08:06:14.256Z,100586.84
2018-12-16T08:08:46.808Z,100580.34
2018-12-16T08:11:19.506Z,100574.12
2018-12-16T08:13:52.045Z,100569.37
2018-12-16T08:16:24.597Z,100567.98
2018-12-16T08:18:57.131Z,100566.27
2018-12-16T08:21:29.793Z,100575.93
2018-12-16T08:24:02.325Z,100573.95
2018-12-16T08:26:34.898Z,100570.70
2018-12-16T08:29:07.459Z,100566.42
2018-12-16T08:31:40.110Z,100565.92
2018-12-16T08:34:12.666Z,100557.48
2018-12-16T08:36:45.286Z,100555.20
2018-12-16T08:39:17.823Z,100560.76
2018-12-16T08:41:50.403Z,100555.94
2018-12-16T08:44:23.035Z,100549.14
2018-12-16T08:46:55.591Z,100548.76
2018-12-16T08:49:28.133Z,100560.59
2018-12-16T08:52:00.771Z,100557.48
2018-12-16T08:54:33.308Z,100564.23
2018-12-16T08:57:05.865Z,100554.95
2018-12-16T08:59:38.414Z,100559.30
2018-12-16T09:02:11.036Z,100560.71
2018-12-16T09:04:45.980Z,100561.91
2018-12-16T09:07:18.574Z,100567.55
2018-12-16T09:09:51.115Z,100568.97
2018-12-16T09:12:23.704Z,100563.73
2018-12-16T09:14:56.242Z,100564.92
2018-12-16T09:17:28.831Z,100557.91
2018-12-16T09:20:01.395Z,100562.18
2018-12-16T09:22:34.030Z,100561.27
2018-12-16T09:25:06.611Z,100560.46
2018-12-16T09:27:39.176Z,100561.72
2018-12-16T09:30:11.739Z,100562.27
2018-12-16T09:32:44.332Z,100557.64
2018-12-16T09:35:17.789Z,100561.84
2018-12-16T09:37:50.617Z,100551.27
2018-12-16T09:40:23.256Z,100550.52
2018-12-16T09:42:56.941Z,100554.81
2018-12-16T09:45:29.485Z,100549.77
2018-12-16T09:48:02.304Z,100556.11
2018-12-16T09:50:35.127Z,100545.98
2018-12-16T09:53:07.716Z,100548.14
2018-12-16T09:55:40.258Z,100535.09
2018-12-16T09:58:12.908Z,100529.03
2018-12-16T10:00:45.460Z,100531.19
2018-12-16T10:03:18.289Z,100523.83
2018-12-16T10:05:50.848Z,100521.77
2018-12-16T10:08:23.529Z,100517.30
2018-12-16T10:10:56.075Z,100519.21
2018-12-16T10:13:28.735Z,100502.47
2018-12-16T10:16:01.280Z,100508.39
2018-12-16T10:18:33.850Z,100510.23
2018-12-16T10:21:06.414Z,100502.75
2018-12-16T10:23:38.980Z,100499.05
2018-12-16T10:26:11.513Z,100491.05
2018-12-16T10:28:44.072Z,100485.17
2018-12-16T10:31:16.652Z,100485.23
2018-12-16T10:33:49.689Z,100479.26
2018-12-16T10:36:22.548Z,100480.98
2018-12-16T10:38:55.891Z,100475.97
2018-12-16T10:41:29.801Z,100476.42
2018-12-16T10:44:02.995Z,100467.98
2018-12-16T10:46:35.568Z,100473.39
2018-12-16T10:49:08.200Z,100471.28
2018-12-16T10:51:40.738Z,100464.09
2018-12-16T10:54:13.336Z,100459.22
2018-12-16T10:56:45.883Z,100459.64
2018-12-16T10:59:18.542Z,100461.38
2018-12-16T11:01:51.079Z,100453.29
2018-12-16T11:04:23.667Z,100444.45
2018-12-16T11:06:56.195Z,100444.91
2018-12-16T11:09:28.879Z,100426.37
2018-12-16T11:12:01.489Z,100425.92
2018-12-16T11:14:34.064Z,100418.34
2018-12-16T11:17:06.627Z,100422.14
2018-12-16T11:19:39.184Z,100426.38
2018-12-16T11:22:12.209Z,100426.41
2018-12-16T11:24:44.781Z,100432.27
2018-12-16T11:27:17.337Z,100424.59
2018-12-16T11:29:49.981Z,100420.83
2018-12-16T11:32:22.522Z,100415.80
2018-12-16T11:34:55.147Z,100402.75
2018-12-16T11:37:27.970Z,100396.42
2018-12-16T11:40:00.658Z,100396.83
2018-12-16T11:42:33.192Z,100392.61
2018-12-16T11:45:06.513Z,100377.44
2018-12-16T11:47:39.048Z,100374.94
2018-12-16T11:50:11.628Z,100371.53
2018-12-16T11:52:44.172Z,100363.98
2018-12-16T11:55:16.765Z,100364.00
2018-12-16T11:57:49.302Z,100355.96
2018-12-16T12:00:21.860Z,100356.34
2018-12-16T12:02:54.396Z,100358.92
2018-12-16T12:05:26.976Z,100355.56
2018-12-16T12:07:59.518Z,100347.51
2018-12-16T12:10:32.098Z,100347.10
2018-12-16T12:13:04.643Z,100347.97
2018-12-16T12:15:37.235Z,100348.81
2018-12-16T12:18:09.769Z,100351.80
2018-12-16T12:20:42.371Z,100348.01
2018-12-16T12:23:14.907Z,100351.79
2018-12-16T12:25:47.472Z,100349.28
2018-12-16T12:28:20.291Z,100344.59
2018-12-16T12:30:52.920Z,100351.77
2018-12-16T12:33:25.538Z,100351.38
2018-12-16T12:35:58.199Z,100354.34
2018-12-16T12:38:30.735Z,100349.24
2018-12-16T12:41:03.317Z,100353.05
2018-12-16T12:43:35.854Z,100355.16
2018-12-16T12:46:08.504Z,100360.21
2018-12-16T12:48:41.046Z,100359.37
2018-12-16T12:51:13.618Z,100357.71
2018-12-16T12:53:46.179Z,100357.71
2018-12-16T12:56:18.848Z,100355.61
2018-12-16T12:58:51.364Z,100360.23
2018-12-16T13:01:23.959Z,100353.52
2018-12-16T13:03:56.508Z,100352.69
2018-12-16T13:06:29.081Z,100353.09
2018-12-16T13:09:01.684Z,100357.72
2018-12-16T13:11:34.259Z,100364.92
2018-12-16T13:14:06.807Z,100356.48
2018-12-16T13:16:39.536Z,100354.77
2018-12-16T13:19:12.151Z,100359.83
2018-12-16T13:21:44.757Z,100360.67
2018-12-16T13:24:17.316Z,100361.08
2018-12-16T13:26:49.978Z,100365.33
2018-12-16T13:29:22.509Z,100358.99
2018-12-16T13:31:55.168Z,100359.83
2018-12-16T13:34:27.729Z,100358.98
2018-12-16T13:37:00.293Z,100351.83
2018-12-16T13:39:32.850Z,100352.68
2018-12-16T13:42:05.546Z,100355.63
2018-12-16T13:44:38.146Z,100348.45
2018-12-16T13:47:10.831Z,100340.01
2018-12-16T13:49:43.387Z,100336.20
2018-12-16T13:52:15.957Z,100339.17
2018-12-16T13:54:48.502Z,100339.59
2018-12-16T13:57:21.068Z,100334.95
2018-12-16T13:59:53.619Z,100338.34
2018-12-16T14:02:26.247Z,100341.70
2018-12-16T14:04:58.798Z,100342.98
2018-12-16T14:07:31.337Z,100342.98
2018-12-16T14:10:05.365Z,100339.20
2018-12-16T14:12:38.043Z,100337.51
2018-12-16T14:15:10.604Z,100337.50
2018-12-16T14:17:43.177Z,100342.15
2018-12-16T14:20:15.727Z,100337.92
2018-12-16T14:22:48.444Z,100335.37
2018-12-16T14:25:21.004Z,100345.94
2018-12-16T14:27:53.644Z,100347.61
2018-12-16T14:30:26.231Z,100345.09
2018-12-16T14:32:59.024Z,100345.52
2018-12-16T14:35:31.826Z,100344.23
2018-12-16T14:38:04.950Z,100351.39
2018-12-16T14:40:37.468Z,100342.13
2018-12-16T14:43:10.021Z,100345.52
2018-12-16T14:45:42.601Z,100343.81
2018-12-16T14:48:16.939Z,100350.55
2018-12-16T14:50:49.685Z,100354.75
2018-12-16T14:53:22.262Z,100357.28
2018-12-16T14:55:55.393Z,100355.19
2018-12-16T14:58:28.256Z,100361.95
2018-12-16T15:01:00.867Z,100365.72
2018-12-16T15:03:33.543Z,100359.39
2018-12-16T15:06:06.236Z,100366.16
2018-12-16T15:08:38.844Z,100361.52
2018-12-16T15:11:11.525Z,100371.21
2018-12-16T15:13:44.227Z,100375.84
2018-12-16T15:16:16.907Z,100374.15
2018-12-16T15:18:49.635Z,100379.64
2018-12-16T15:21:22.172Z,100376.27
2018-12-16T15:23:55.044Z,100372.48
2018-12-16T15:26:27.642Z,100371.20
2018-12-16T15:29:00.272Z,100379.22
2018-12-16T15:31:32.872Z,100383.42
2018-12-16T15:34:05.629Z,100385.95
2018-12-16T15:36:38.236Z,100382.17
2018-12-16T15:39:10.931Z,100373.32
2018-12-16T15:41:43.467Z,100382.16
2018-12-16T15:44:16.204Z,100383.00
2018-12-16T15:46:48.777Z,100385.95
2018-12-16T15:49:21.511Z,100377.55
2018-12-16T15:51:54.053Z,100366.98
2018-12-16T15:54:26.699Z,100376.27
2018-12-16T15:56:59.235Z,100371.19
2018-12-16T15:59:31.867Z,100360.23
2018-12-16T16:02:04.413Z,100355.59
2018-12-16T16:04:36.979Z,100357.70
2018-12-16T16:07:09.547Z,100370.75
2018-12-16T16:09:42.215Z,100377.49
2018-12-16T16:12:14.761Z,100384.66
2018-12-16T16:14:47.344Z,100382.98
2018-12-16T16:17:19.956Z,100381.30
2018-12-16T16:19:52.574Z,100387.64
2018-12-16T16:22:25.133Z,100386.37
2018-12-16T16:24:57.835Z,100382.58
2018-12-16T16:27:30.383Z,100380.06
2018-12-16T16:30:04.028Z,100382.59
2018-12-16T16:32:36.559Z,100387.23
2018-12-16T16:35:10.770Z,100405.77
2018-12-16T16:37:43.396Z,100401.55
2018-12-16T16:40:16.393Z,100407.03
2018-12-16T16:42:48.941Z,100395.64
2018-12-16T16:45:21.512Z,100384.66
2018-12-16T16:47:54.052Z,100385.87
2018-12-16T16:50:26.701Z,100392.23
2018-12-16T16:52:59.254Z,100408.67
2018-12-16T16:55:31.978Z,100407.87
2018-12-16T16:58:04.530Z,100405.34
2018-12-16T17:00:37.147Z,100413.36
2018-12-16T17:03:09.696Z,100418.83
2018-12-16T17:05:42.272Z,100418.42
2018-12-16T17:08:14.832Z,100411.65
2018-12-16T17:10:47.441Z,100420.51
2018-12-16T17:13:20.014Z,100422.19
2018-12-16T17:15:53.344Z,100426.41
2018-12-16T17:18:25.908Z,100433.59
2018-12-16T17:20:58.774Z,100432.33
2018-12-16T17:23:31.808Z,100433.59
2018-12-16T17:26:04.698Z,100439.46
2018-12-16T17:28:37.678Z,100436.06
2018-12-16T17:31:10.676Z,100447.00
2018-12-16T17:33:43.698Z,100439.39
2018-12-16T17:36:16.487Z,100441.02
2018-12-16T17:38:49.042Z,100454.86
2018-12-16T17:41:21.705Z,100447.28
2018-12-16T17:43:54.263Z,100440.09
2018-12-16T17:46:26.933Z,100438.80
2018-12-16T17:48:59.492Z,100443.44
2018-12-16T17:51:32.073Z,100440.45
2018-12-16T17:54:04.707Z,100444.23
2018-12-16T17:56:37.428Z,100444.69
2018-12-16T17:59:10.061Z,100450.55
2018-12-16T18:01:42.984Z,100448.00
2018-12-16T18:04:15.531Z,100448.03
2018-12-16T18:06:48.781Z,100451.80
2018-12-16T18:09:21.549Z,100451.79
2018-12-16T18:11:54.132Z,100454.31
2018-12-16T18:14:26.734Z,100443.81
2018-12-16T18:17:00.446Z,100439.61
2018-12-16T18:19:33.073Z,100436.22
2018-12-16T18:22:05.642Z,100434.52
2018-12-16T18:24:38.502Z,100439.98
2018-12-16T18:27:11.764Z,100441.25
2018-12-16T18:29:44.344Z,100437.88
2018-12-16T18:32:17.019Z,100438.72
2018-12-16T18:34:49.931Z,100443.78
2018-12-16T18:37:22.773Z,100438.30
2018-12-16T18:39:55.318Z,100447.13
2018-12-16T18:42:27.979Z,100444.18
2018-12-16T18:45:00.532Z,100446.27
2018-12-16T18:47:33.310Z,100447.14
2018-12-16T18:50:08.011Z,100443.36
2018-12-16T18:52:40.617Z,100448.85
2018-12-16T18:55:13.830Z,100458.10
2018-12-16T18:57:46.440Z,100464.42
2018-12-16T19:00:19.176Z,100460.63
2018-12-16T19:02:51.929Z,100455.58
2018-12-16T19:05:24.614Z,100460.64
2018-12-16T19:07:57.559Z,100464.42
2018-12-16T19:10:30.086Z,100462.72
2018-12-16T19:13:02.668Z,100465.69
2018-12-16T19:15:35.357Z,100457.66
2018-12-16T19:18:07.937Z,100466.09
2018-12-16T19:20:40.551Z,100458.06
2018-12-16T19:23:13.212Z,100466.06
2018-12-16T19:25:45.758Z,100460.61
2018-12-16T19:28:18.435Z,100465.22
2018-12-16T19:30:51.032Z,100463.14
2018-12-16T19:33:23.664Z,100465.69
2018-12-16T19:35:56.261Z,100469.00
2018-12-16T19:38:28.871Z,100475.73
2018-12-16T19:41:01.429Z,100474.05
2018-12-16T19:43:34.091Z,100476.19
2018-12-16T19:46:06.640Z,100478.72
2018-12-16T19:48:39.207Z,100473.66
2018-12-16T19:51:11.750Z,100471.55
2018-12-16T19:53:44.324Z,100476.18
2018-12-16T19:56:16.920Z,100471.16
2018-12-16T19:58:49.999Z,100478.73
2018-12-16T20:01:22.679Z,100477.45
2018-12-16T20:04:01.105Z,100484.63
2018-12-16T20:06:51.422Z,100482.52
2018-12-16T20:09:24.035Z,100493.47
2018-12-16T20:11:56.564Z,100485.89
2018-12-16T20:14:29.174Z,100485.91
2018-12-16T20:17:01.713Z,100483.83
2018-12-16T20:19:34.414Z,100479.17
2018-12-16T20:22:06.962Z,100484.22
2018-12-16T20:24:39.615Z,100485.09
2018-12-16T20:27:12.203Z,100489.30
2018-12-16T20:29:45.152Z,100481.72
2018-12-16T20:32:17.699Z,100484.25
2018-12-16T20:34:50.403Z,100493.53
2018-12-16T20:37:22.949Z,100498.61
2018-12-16T20:39:55.796Z,100506.18
2018-12-16T20:42:28.405Z,100509.14
2018-12-16T20:45:01.251Z,100520.47
2018-12-16T20:47:33.823Z,100520.88
2018-12-16T20:50:07.072Z,100525.11
2018-12-16T20:52:39.610Z,100519.69
2018-12-16T20:55:13.168Z,100519.22
2018-12-16T20:57:45.707Z,100527.66
2018-12-16T21:00:18.309Z,100532.73
2018-12-16T21:02:50.955Z,100536.50
2018-12-16T21:05:23.568Z,100531.05
2018-12-16T21:07:56.128Z,100524.73
2018-12-16T21:10:29.019Z,100525.16
2018-12-16T21:13:07.140Z,100525.13
2018-12-16T21:15:45.250Z,100523.88
2018-12-16T21:18:23.825Z,100522.19
2018-12-16T21:20:56.404Z,100528.97
2018-12-16T21:23:28.974Z,100524.75
2018-12-16T21:26:01.659Z,100525.13
2018-12-16T21:28:34.268Z,100523.89
2018-12-16T21:31:07.055Z,100523.89
2018-12-16T21:33:39.653Z,100526.44
2018-12-16T21:36:13.266Z,100535.30
2018-12-16T21:38:45.838Z,100533.11
2018-12-16T21:41:18.563Z,100538.20
2018-12-16T21:43:51.128Z,100539.91
2018-12-16T21:46:23.731Z,100541.59
2018-12-16T21:48:56.323Z,100542.48
2018-12-16T21:51:29.036Z,100548.80
2018-12-16T21:54:01.605Z,100547.95
2018-12-16T21:56:34.199Z,100560.18
2018-12-16T21:59:06.820Z,100554.70
2018-12-16T22:01:39.436Z,100561.05
2018-12-16T22:04:12.043Z,100558.48
2018-12-16T22:06:44.745Z,100566.49
2018-12-16T22:09:17.345Z,100569.37
2018-12-16T22:11:50.239Z,100579.55
2018-12-16T22:14:22.912Z,100576.63
2018-12-16T22:16:55.629Z,100568.63
2018-12-16T22:19:28.216Z,100574.94
2018-12-16T22:22:00.942Z,100569.45
2018-12-16T22:24:33.561Z,100573.27
2018-12-16T22:27:06.218Z,100576.64
2018-12-16T22:29:38.840Z,100573.69
2018-12-16T22:32:11.442Z,100571.19
2018-12-16T22:34:44.025Z,100574.94
2018-12-16T22:37:16.704Z,100569.46
2018-12-16T22:39:49.305Z,100574.12
2018-12-16T22:42:22.078Z,100573.30
2018-12-16T22:44:54.671Z,100579.64
2018-12-16T22:47:27.346Z,100579.66
2018-12-16T22:49:59.958Z,100582.20
2018-12-16T22:52:32.604Z,100585.95
2018-12-16T22:55:05.641Z,100584.72
2018-12-16T22:57:38.250Z,100584.27
2018-12-16T23:00:13.167Z,100583.43
2018-12-16T23:02:45.857Z,100588.45
2018-12-16T23:05:18.470Z,100586.77
2018-12-16T23:07:51.175Z,100586.35
2018-12-16T23:10:23.740Z,100587.62
2018-12-16T23:12:56.458Z,100586.28
2018-12-16T23:15:29.047Z,100587.17
2018-12-16T23:18:01.811Z,100580.02
2018-12-16T23:20:34.391Z,100585.05
2018-12-16T23:23:06.990Z,100582.52
2018-12-16T23:25:39.577Z,100590.55
2018-12-16T23:28:12.389Z,100593.54
2018-12-16T23:30:44.977Z,100595.64
2018-12-16T23:33:17.611Z,100596.06
2018-12-16T23:35:50.225Z,100595.64
2018-12-16T23:38:22.927Z,100596.50
2018-12-16T23:40:55.858Z,100596.55
2018-12-16T23:43:28.609Z,100596.16
2018-12-16T23:46:01.171Z,100599.95
2018-12-16T23:48:33.785Z,100603.27
2018-12-16T23:51:06.360Z,100603.20
2018-12-16T23:53:38.957Z,100600.72
2018-12-16T23:56:11.515Z,100599.89
2018-12-16T23:58:44.241Z,100610.47
